sensor_id;sensor_type;location;lat;lon;timestamp;pressure;altitude;pressure_sealevel;temperature;humidity
56402;BME280;42299;35.160;26.100;2023-07-31T00:00:46;100192.47;;;26.76;100.00
56402;BME280;42299;35.160;26.100;2023-07-31T00:11:10;100176.59;;;26.70;100.00
56402;BME280;42299;35.160;26.100;2023-07-31T00:21:13;100173.47;;;26.62;100.00
56402;BME280;42299;35.160;26.100;2023-07-31T00:31:37;100178.09;;;26.60;100.00
56402;BME280;42299;35.160;26.100;2023-07-31T00:41:59;100160.94;;;26.45;100.00
56402;BME280;42299;35.160;26.100;2023-07-31T00:52:24;100158.59;;;26.39;100.00
56402;BME280;42299;35.160;26.100;2023-07-31T01:02:47;100146.28;;;26.34;100.00
56402;BME280;42299;35.160;26.100;2023-07-31T01:13:11;100143.94;;;26.28;100.00
56402;BME280;42299;35.160;26.100;2023-07-31T01:23:47;100146.13;;;26.21;100.00
56402;BME280;42299;35.160;26.100;2023-07-31T01:34:00;100142.03;;;26.14;100.00
56402;BME280;42299;35.160;26.100;2023-07-31T01:44:23;100138.06;;;26.19;100.00
56402;BME280;42299;35.160;26.100;2023-07-31T01:54:47;100140.13;;;26.32;100.00
56402;BME280;42299;35.160;26.100;2023-07-31T02:05:10;100147.09;;;26.36;100.00
56402;BME280;42299;35.160;26.100;2023-07-31T02:15:35;100142.81;;;26.32;100.00
56402;BME280;42299;35.160;26.100;2023-07-31T02:25:57;100141.16;;;26.29;100.00
56402;BME280;42299;35.160;26.100;2023-07-31T02:36:21;100144.81;;;26.28;100.00
56402;BME280;42299;35.160;26.100;2023-07-31T02:46:44;100150.50;;;26.24;100.00
56402;BME280;42299;35.160;26.100;2023-07-31T02:57:09;100139.81;;;26.20;100.00
56402;BME280;42299;35.160;26.100;2023-07-31T03:07:31;100147.00;;;26.22;100.00
56402;BME280;42299;35.160;26.100;2023-07-31T03:17:55;100148.03;;;26.19;100.00
56402;BME280;42299;35.160;26.100;2023-07-31T03:28:18;100151.59;;;26.19;100.00
56402;BME280;42299;35.160;26.100;2023-07-31T03:38:42;100151.28;;;26.26;100.00
56402;BME280;42299;35.160;26.100;2023-07-31T03:49:04;100151.75;;;26.48;100.00
56402;BME280;42299;35.160;26.100;2023-07-31T03:59:28;100146.22;;;26.79;100.00
56402;BME280;42299;35.160;26.100;2023-07-31T04:09:51;100139.25;;;27.19;100.00
56402;BME280;42299;35.160;26.100;2023-07-31T04:20:15;100143.50;;;27.66;100.00
56402;BME280;42299;35.160;26.100;2023-07-31T04:30:17;100134.16;;;28.11;98.27
56402;BME280;42299;35.160;26.100;2023-07-31T04:40:42;100140.09;;;28.57;92.40
56402;BME280;42299;35.160;26.100;2023-07-31T04:51:04;100150.50;;;29.15;89.01
56402;BME280;42299;35.160;26.100;2023-07-31T05:01:28;100148.50;;;29.68;80.37
56402;BME280;42299;35.160;26.100;2023-07-31T05:11:51;100150.09;;;30.20;74.36
56402;BME280;42299;35.160;26.100;2023-07-31T05:22:15;100136.81;;;30.52;57.75
56402;BME280;42299;35.160;26.100;2023-07-31T05:32:37;100133.75;;;31.13;52.86
56402;BME280;42299;35.160;26.100;2023-07-31T05:43:01;100142.19;;;31.77;47.84
56402;BME280;42299;35.160;26.100;2023-07-31T05:53:24;100133.66;;;32.57;46.82
56402;BME280;42299;35.160;26.100;2023-07-31T06:03:49;100133.66;;;33.40;44.28
56402;BME280;42299;35.160;26.100;2023-07-31T06:14:11;100142.53;;;33.93;41.98
56402;BME280;42299;35.160;26.100;2023-07-31T06:24:35;100159.34;;;34.48;40.96
56402;BME280;42299;35.160;26.100;2023-07-31T06:34:58;100166.34;;;34.71;39.89
56402;BME280;42299;35.160;26.100;2023-07-31T06:45:22;100162.56;;;34.91;37.53
56402;BME280;42299;35.160;26.100;2023-07-31T06:55:44;100165.88;;;34.85;37.69
56402;BME280;42299;35.160;26.100;2023-07-31T07:06:10;100170.06;;;34.79;37.26
56402;BME280;42299;35.160;26.100;2023-07-31T07:16:33;100169.16;;;35.64;37.06
56402;BME280;42299;35.160;26.100;2023-07-31T07:26:57;100162.53;;;36.21;36.70
56402;BME280;42299;35.160;26.100;2023-07-31T07:37:19;100173.56;;;36.12;36.71
56402;BME280;42299;35.160;26.100;2023-07-31T07:47:24;100179.19;;;36.20;35.96
56402;BME280;42299;35.160;26.100;2023-07-31T07:57:47;100175.97;;;36.24;36.05
56402;BME280;42299;35.160;26.100;2023-07-31T08:08:14;100169.25;;;36.72;35.49
56402;BME280;42299;35.160;26.100;2023-07-31T08:18:37;100183.13;;;36.53;34.48
56402;BME280;42299;35.160;26.100;2023-07-31T08:29:03;100191.00;;;36.83;34.67
56402;BME280;42299;35.160;26.100;2023-07-31T08:39:26;100193.44;;;37.04;34.90
56402;BME280;42299;35.160;26.100;2023-07-31T08:49:34;100197.25;;;37.29;35.25
56402;BME280;42299;35.160;26.100;2023-07-31T08:59:57;100213.03;;;37.44;35.69
56402;BME280;42299;35.160;26.100;2023-07-31T09:10:15;100206.06;;;37.32;35.95
56402;BME280;42299;35.160;26.100;2023-07-31T09:20:38;100211.81;;;37.65;36.14
56402;BME280;42299;35.160;26.100;2023-07-31T09:31:02;100199.38;;;37.95;35.93
56402;BME280;42299;35.160;26.100;2023-07-31T09:41:25;100220.06;;;38.24;35.66
56402;BME280;42299;35.160;26.100;2023-07-31T09:51:30;100224.25;;;38.03;34.73
56402;BME280;42299;35.160;26.100;2023-07-31T10:01:54;100222.50;;;37.94;34.47
56402;BME280;42299;35.160;26.100;2023-07-31T10:12:22;100204.53;;;37.89;35.26
56402;BME280;42299;35.160;26.100;2023-07-31T10:22:49;100211.78;;;37.90;35.49
56402;BME280;42299;35.160;26.100;2023-07-31T10:33:15;100213.47;;;37.83;36.54
56402;BME280;42299;35.160;26.100;2023-07-31T10:43:25;100218.63;;;37.78;33.80
56402;BME280;42299;35.160;26.100;2023-07-31T10:53:46;100212.38;;;37.50;33.85
56402;BME280;42299;35.160;26.100;2023-07-31T11:04:10;100213.63;;;37.30;34.17
56402;BME280;42299;35.160;26.100;2023-07-31T11:14:35;100201.28;;;37.34;33.26
56402;BME280;42299;35.160;26.100;2023-07-31T11:24:58;100196.56;;;37.27;33.91
56402;BME280;42299;35.160;26.100;2023-07-31T11:35:23;100203.19;;;37.60;34.59
56402;BME280;42299;35.160;26.100;2023-07-31T11:45:47;100183.25;;;37.66;33.73
56402;BME280;42299;35.160;26.100;2023-07-31T11:56:13;100188.09;;;37.20;34.30
56402;BME280;42299;35.160;26.100;2023-07-31T12:06:37;100175.28;;;37.11;34.46
56402;BME280;42299;35.160;26.100;2023-07-31T12:17:04;100174.84;;;37.24;32.70
56402;BME280;42299;35.160;26.100;2023-07-31T12:27:10;100166.38;;;37.17;33.26
56402;BME280;42299;35.160;26.100;2023-07-31T12:37:34;100155.44;;;37.07;33.07
56402;BME280;42299;35.160;26.100;2023-07-31T12:47:57;100150.94;;;37.24;32.59
56402;BME280;42299;35.160;26.100;2023-07-31T12:58:22;100153.66;;;36.98;33.63
56402;BME280;42299;35.160;26.100;2023-07-31T13:08:45;100148.03;;;36.64;34.24
56402;BME280;42299;35.160;26.100;2023-07-31T13:19:10;100162.72;;;36.55;35.54
56402;BME280;42299;35.160;26.100;2023-07-31T13:29:32;100160.66;;;35.94;35.88
56402;BME280;42299;35.160;26.100;2023-07-31T13:39:57;100148.13;;;36.10;36.39
56402;BME280;42299;35.160;26.100;2023-07-31T13:50:19;100135.28;;;35.83;35.93
56402;BME280;42299;35.160;26.100;2023-07-31T14:00:45;100131.25;;;35.77;35.85
56402;BME280;42299;35.160;26.100;2023-07-31T14:10:55;100133.03;;;35.96;34.84
56402;BME280;42299;35.160;26.100;2023-07-31T14:21:20;100137.66;;;35.95;34.46
56402;BME280;42299;35.160;26.100;2023-07-31T14:31:26;100121.16;;;35.95;35.25
56402;BME280;42299;35.160;26.100;2023-07-31T14:41:50;100120.38;;;36.03;37.25
56402;BME280;42299;35.160;26.100;2023-07-31T14:52:15;100128.31;;;35.79;38.52
56402;BME280;42299;35.160;26.100;2023-07-31T15:02:40;100128.41;;;35.60;38.59
56402;BME280;42299;35.160;26.100;2023-07-31T15:13:02;100124.72;;;34.85;39.27
56402;BME280;42299;35.160;26.100;2023-07-31T15:23:27;100127.66;;;33.95;40.04
56402;BME280;42299;35.160;26.100;2023-07-31T15:33:49;100126.94;;;33.02;42.48
56402;BME280;42299;35.160;26.100;2023-07-31T15:44:14;100139.66;;;32.51;44.70
56402;BME280;42299;35.160;26.100;2023-07-31T15:54:36;100133.22;;;31.97;51.96
56402;BME280;42299;35.160;26.100;2023-07-31T16:05:01;100153.00;;;31.67;49.66
56402;BME280;42299;35.160;26.100;2023-07-31T16:15:23;100149.91;;;31.50;49.07
56402;BME280;42299;35.160;26.100;2023-07-31T16:25:47;100165.00;;;31.20;54.50
56402;BME280;42299;35.160;26.100;2023-07-31T16:35:49;100161.97;;;31.01;54.25
56402;BME280;42299;35.160;26.100;2023-07-31T16:46:15;100181.47;;;30.73;54.39
56402;BME280;42299;35.160;26.100;2023-07-31T16:56:37;100183.75;;;30.55;55.49
56402;BME280;42299;35.160;26.100;2023-07-31T17:07:02;100171.88;;;30.32;62.56
56402;BME280;42299;35.160;26.100;2023-07-31T17:17:25;100184.13;;;30.14;69.37
56402;BME280;42299;35.160;26.100;2023-07-31T17:27:50;100187.88;;;29.88;77.01
56402;BME280;42299;35.160;26.100;2023-07-31T17:38:13;100188.47;;;29.67;81.50
56402;BME280;42299;35.160;26.100;2023-07-31T17:48:36;100212.44;;;29.50;85.89
56402;BME280;42299;35.160;26.100;2023-07-31T17:58:59;100219.16;;;29.31;90.16
56402;BME280;42299;35.160;26.100;2023-07-31T18:09:23;100220.78;;;29.21;94.04
56402;BME280;42299;35.160;26.100;2023-07-31T18:19:46;100235.34;;;29.08;96.55
56402;BME280;42299;35.160;26.100;2023-07-31T18:30:12;100239.91;;;28.95;98.76
56402;BME280;42299;35.160;26.100;2023-07-31T18:40:34;100253.97;;;28.74;95.82
56402;BME280;42299;35.160;26.100;2023-07-31T18:50:59;100260.31;;;28.61;92.51
56402;BME280;42299;35.160;26.100;2023-07-31T19:01:23;100272.59;;;28.39;87.72
56402;BME280;42299;35.160;26.100;2023-07-31T19:11:33;100282.69;;;28.37;83.38
56402;BME280;42299;35.160;26.100;2023-07-31T19:21:56;100279.31;;;28.20;82.08
56402;BME280;42299;35.160;26.100;2023-07-31T19:32:20;100294.25;;;28.12;79.22
56402;BME280;42299;35.160;26.100;2023-07-31T19:42:43;100290.47;;;28.01;78.73
56402;BME280;42299;35.160;26.100;2023-07-31T19:53:08;100299.97;;;27.94;78.74
56402;BME280;42299;35.160;26.100;2023-07-31T20:03:31;100293.19;;;27.87;78.36
56402;BME280;42299;35.160;26.100;2023-07-31T20:13:55;100299.88;;;27.81;78.64
56402;BME280;42299;35.160;26.100;2023-07-31T20:24:17;100297.94;;;27.69;79.59
56402;BME280;42299;35.160;26.100;2023-07-31T20:34:42;100297.72;;;27.58;81.33
56402;BME280;42299;35.160;26.100;2023-07-31T20:45:05;100294.78;;;27.47;83.69
56402;BME280;42299;35.160;26.100;2023-07-31T20:55:31;100305.69;;;27.31;85.19
56402;BME280;42299;35.160;26.100;2023-07-31T21:05:54;100303.03;;;27.15;87.47
56402;BME280;42299;35.160;26.100;2023-07-31T21:16:19;100289.53;;;27.00;89.64
56402;BME280;42299;35.160;26.100;2023-07-31T21:26:42;100294.69;;;26.88;90.79
56402;BME280;42299;35.160;26.100;2023-07-31T21:37:07;100302.59;;;26.77;90.32
56402;BME280;42299;35.160;26.100;2023-07-31T21:47:31;100289.72;;;26.81;88.28
56402;BME280;42299;35.160;26.100;2023-07-31T21:57:56;100280.13;;;26.75;86.99
56402;BME280;42299;35.160;26.100;2023-07-31T22:08:18;100284.16;;;26.68;85.39
56402;BME280;42299;35.160;26.100;2023-07-31T22:18:43;100281.34;;;26.70;84.42
56402;BME280;42299;35.160;26.100;2023-07-31T22:29:05;100276.38;;;26.62;88.08
56402;BME280;42299;35.160;26.100;2023-07-31T22:39:09;100267.16;;;26.50;94.77
56402;BME280;42299;35.160;26.100;2023-07-31T22:49:32;100276.41;;;26.46;100.00
56402;BME280;42299;35.160;26.100;2023-07-31T22:59:57;100262.34;;;26.40;100.00
56402;BME280;42299;35.160;26.100;2023-07-31T23:10:20;100259.81;;;26.37;100.00
56402;BME280;42299;35.160;26.100;2023-07-31T23:20:48;100246.09;;;26.40;100.00
56402;BME280;42299;35.160;26.100;2023-07-31T23:31:11;100240.00;;;26.36;100.00
56402;BME280;42299;35.160;26.100;2023-07-31T23:41:35;100237.88;;;26.41;100.00
56402;BME280;42299;35.160;26.100;2023-07-31T23:51:57;100229.34;;;26.33;100.00
